createdAt,value
2023-05-10T00:01:13.840Z,37.79
2023-05-10T00:03:41.509Z,39.32
2023-05-10T00:06:08.773Z,38.31
2023-05-10T00:08:36.028Z,38.57
2023-05-10T00:11:03.019Z,37.25
2023-05-10T00:13:30.225Z,37.58
2023-05-10T00:15:57.343Z,37.80
2023-05-10T00:18:24.448Z,38.91
2023-05-10T00:20:51.635Z,38.73
2023-05-10T00:23:18.657Z,39.19
2023-05-10T00:25:45.720Z,39.28
2023-05-10T00:28:12.801Z,40.31
2023-05-10T00:30:39.845Z,40.35
2023-05-10T00:33:07.281Z,40.15
2023-05-10T00:35:35.074Z,39.55
2023-05-10T00:38:02.104Z,39.52
2023-05-10T00:40:29.815Z,40.06
2023-05-10T00:43:01.684Z,39.51
2023-05-10T00:45:29.061Z,39.78
2023-05-10T00:47:58.174Z,39.56
2023-05-10T00:50:25.651Z,39.15
2023-05-10T00:52:53.652Z,39.22
2023-05-10T00:55:21.245Z,39.68
2023-05-10T00:57:48.584Z,39.40
2023-05-10T01:00:19.265Z,39.86
2023-05-10T01:02:47.555Z,39.79
2023-05-10T01:05:14.838Z,40.00
2023-05-10T01:07:42.333Z,40.13
2023-05-10T01:10:12.071Z,40.63
2023-05-10T01:12:42.283Z,41.09
2023-05-10T01:15:11.124Z,42.39
2023-05-10T01:17:41.438Z,42.74
2023-05-10T01:20:10.496Z,41.54
2023-05-10T01:22:57.258Z,40.67
2023-05-10T01:26:16.633Z,40.87
2023-05-10T01:28:52.685Z,41.75
2023-05-10T01:31:34.322Z,41.33
2023-05-10T01:34:22.253Z,39.59
2023-05-10T01:37:02.292Z,39.55
2023-05-10T01:39:44.610Z,39.54
2023-05-10T01:42:15.449Z,39.29
2023-05-10T01:44:52.417Z,39.38
2023-05-10T01:47:39.887Z,39.41
2023-05-10T01:50:16.618Z,39.20
2023-05-10T01:52:48.240Z,37.46
2023-05-10T01:55:22.521Z,38.48
2023-05-10T01:57:59.873Z,38.71
2023-05-10T02:00:46.954Z,40.55
2023-05-10T02:03:16.300Z,40.47
2023-05-10T02:05:46.164Z,41.45
2023-05-10T02:08:52.270Z,40.04
2023-05-10T02:11:22.642Z,40.99
2023-05-10T02:13:52.820Z,41.44
2023-05-10T02:16:24.821Z,41.05
2023-05-10T02:18:53.319Z,39.50
2023-05-10T02:21:22.837Z,39.71
2023-05-10T02:23:53.149Z,39.39
2023-05-10T02:26:22.465Z,40.36
2023-05-10T02:28:50.937Z,39.49
2023-05-10T02:31:20.024Z,40.72
2023-05-10T02:33:48.127Z,40.65
2023-05-10T02:36:17.469Z,41.12
2023-05-10T02:38:46.683Z,40.74
2023-05-10T02:41:15.405Z,39.87
2023-05-10T02:43:44.401Z,40.53
2023-05-10T02:46:11.670Z,40.66
2023-05-10T02:48:39.497Z,42.42
2023-05-10T02:51:08.562Z,41.08
2023-05-10T02:53:39.639Z,42.03
2023-05-10T02:56:14.509Z,41.01
2023-05-10T02:58:41.738Z,40.80
2023-05-10T03:01:09.252Z,40.83
2023-05-10T03:03:36.424Z,42.40
2023-05-10T03:06:05.428Z,40.84
2023-05-10T03:08:32.636Z,40.93
2023-05-10T03:11:19.108Z,40.19
2023-05-10T03:14:28.361Z,41.04
2023-05-10T03:17:11.319Z,41.70
2023-05-10T03:19:48.958Z,41.96
2023-05-10T03:22:41.226Z,40.54
2023-05-10T03:25:12.653Z,40.79
2023-05-10T03:27:44.498Z,42.63
2023-05-10T03:30:13.466Z,42.28
2023-05-10T03:32:41.226Z,41.43
2023-05-10T03:35:13.481Z,40.09
2023-05-10T03:37:40.647Z,40.25
2023-05-10T03:40:08.821Z,39.98
2023-05-10T03:42:38.217Z,39.96
2023-05-10T03:45:05.934Z,39.76
2023-05-10T03:47:34.102Z,40.93
2023-05-10T03:50:01.451Z,41.22
2023-05-10T03:52:33.058Z,41.14
2023-05-10T03:55:00.228Z,41.13
2023-05-10T03:57:27.388Z,41.32
2023-05-10T03:59:54.414Z,40.93
2023-05-10T04:02:21.401Z,40.85
2023-05-10T04:04:49.361Z,40.51
2023-05-10T04:07:16.519Z,40.92
2023-05-10T04:09:43.757Z,41.56
2023-05-10T04:12:11.233Z,42.59
2023-05-10T04:14:38.461Z,43.10
2023-05-10T04:17:05.687Z,41.45
2023-05-10T04:19:33.253Z,41.10
2023-05-10T04:22:00.821Z,40.97
2023-05-10T04:24:27.845Z,41.25
2023-05-10T04:26:57.525Z,41.15
2023-05-10T04:29:24.991Z,40.48
2023-05-10T04:31:52.101Z,40.43
2023-05-10T04:34:19.838Z,40.13
2023-05-10T04:36:46.810Z,40.20
2023-05-10T04:39:14.902Z,40.25
2023-05-10T04:41:42.123Z,40.42
2023-05-10T04:44:09.191Z,40.12
2023-05-10T04:46:36.439Z,40.64
2023-05-10T04:49:03.525Z,40.17
2023-05-10T04:51:30.613Z,40.32
2023-05-10T04:54:06.243Z,40.07
2023-05-10T04:56:34.757Z,39.88
2023-05-10T04:59:01.840Z,39.78
2023-05-10T05:01:29.200Z,38.99
2023-05-10T05:03:56.494Z,39.27
2023-05-10T05:06:23.776Z,39.34
2023-05-10T05:08:50.817Z,38.95
2023-05-10T05:11:22.235Z,37.94
2023-05-10T05:13:49.365Z,38.25
2023-05-10T05:16:16.463Z,37.08
2023-05-10T05:18:43.625Z,36.35
2023-05-10T05:21:18.021Z,35.95
2023-05-10T05:23:45.746Z,35.67
2023-05-10T05:26:12.840Z,36.03
2023-05-10T05:28:40.136Z,35.21
2023-05-10T05:31:11.051Z,35.55
2023-05-10T05:33:38.266Z,35.28
2023-05-10T05:36:06.759Z,35.31
2023-05-10T05:38:34.091Z,35.20
2023-05-10T05:41:01.347Z,35.20
2023-05-10T05:43:28.659Z,34.73
2023-05-10T05:45:56.109Z,35.13
2023-05-10T05:48:23.368Z,34.73
2023-05-10T05:50:50.463Z,33.70
2023-05-10T05:53:17.429Z,33.96
2023-05-10T05:55:54.482Z,32.78
2023-05-10T05:58:22.690Z,31.44
2023-05-10T06:00:50.471Z,31.30
2023-05-10T06:03:17.907Z,31.48
2023-05-10T06:05:45.190Z,30.97
2023-05-10T06:08:12.211Z,30.18
2023-05-10T06:10:39.291Z,29.05
2023-05-10T06:13:06.563Z,29.41
2023-05-10T06:15:33.879Z,28.95
2023-05-10T06:18:01.164Z,28.90
2023-05-10T06:20:28.597Z,28.46
2023-05-10T06:22:55.925Z,27.83
2023-05-10T06:25:23.109Z,27.04
2023-05-10T06:27:53.484Z,26.63
2023-05-10T06:30:21.366Z,25.71
2023-05-10T06:32:48.572Z,24.94
2023-05-10T06:35:15.783Z,23.99
2023-05-10T06:37:43.055Z,23.47
2023-05-10T06:40:10.543Z,22.10
2023-05-10T06:42:37.734Z,21.99
2023-05-10T06:45:05.284Z,21.20
2023-05-10T06:47:33.416Z,21.86
2023-05-10T06:50:00.895Z,21.51
2023-05-10T06:52:31.448Z,21.40
2023-05-10T06:54:58.854Z,20.47
2023-05-10T06:59:57.567Z,19.75
2023-05-10T07:02:24.601Z,19.64
2023-05-10T07:04:53.108Z,19.09
2023-05-10T07:07:20.476Z,18.71
2023-05-10T07:09:47.723Z,18.74
2023-05-10T07:12:15.847Z,18.62
2023-05-10T07:14:43.774Z,18.74
2023-05-10T07:17:11.116Z,18.42
2023-05-10T07:19:38.184Z,18.36
2023-05-10T07:22:05.239Z,18.04
2023-05-10T07:24:33.289Z,18.01
2023-05-10T07:27:00.542Z,17.89
2023-05-10T07:29:27.685Z,17.07
2023-05-10T07:31:57.103Z,17.12
2023-05-10T07:34:26.157Z,16.54
2023-05-10T07:36:53.875Z,16.15
2023-05-10T07:39:27.637Z,16.15
2023-05-10T07:41:56.002Z,15.85
2023-05-10T07:44:23.329Z,15.67
2023-05-10T07:46:50.590Z,15.78
2023-05-10T07:49:17.705Z,15.87
2023-05-10T07:51:44.928Z,15.94
2023-05-10T07:54:12.064Z,16.23
2023-05-10T07:56:39.081Z,15.72
2023-05-10T07:59:08.797Z,15.08
2023-05-10T08:01:37.103Z,15.64
2023-05-10T08:04:04.280Z,16.09
2023-05-10T08:06:31.541Z,16.31
2023-05-10T08:08:58.735Z,16.44
2023-05-10T08:11:26.177Z,16.13
2023-05-10T08:13:53.319Z,15.75
2023-05-10T08:16:20.905Z,15.79
2023-05-10T08:18:48.842Z,15.28
2023-05-10T08:21:16.810Z,14.85
2023-05-10T08:23:45.213Z,14.13
2023-05-10T08:26:12.537Z,14.01
2023-05-10T08:28:39.799Z,13.98
2023-05-10T08:31:07.497Z,13.49
2023-05-10T08:33:34.686Z,13.90
2023-05-10T08:36:01.822Z,13.97
2023-05-10T08:38:29.078Z,13.38
2023-05-10T08:41:00.100Z,13.25
2023-05-10T08:43:31.421Z,13.76
2023-05-10T08:46:01.775Z,14.66
2023-05-10T08:48:31.207Z,15.24
2023-05-10T08:51:01.852Z,15.65
2023-05-10T08:53:31.622Z,15.98
2023-05-10T08:55:58.865Z,16.08
2023-05-10T08:58:26.502Z,16.04
2023-05-10T09:00:54.676Z,15.84
2023-05-10T09:03:21.912Z,15.77
2023-05-10T09:05:50.293Z,15.74
2023-05-10T09:08:18.557Z,15.84
2023-05-10T09:10:48.316Z,15.43
2023-05-10T09:13:16.557Z,14.88
2023-05-10T09:15:45.214Z,14.91
2023-05-10T09:18:12.916Z,15.04
2023-05-10T09:20:39.995Z,14.85
2023-05-10T09:23:07.859Z,14.80
2023-05-10T09:25:35.507Z,14.88
2023-05-10T09:28:03.200Z,14.45
2023-05-10T09:30:31.752Z,14.60
2023-05-10T09:33:00.055Z,14.75
2023-05-10T09:35:30.149Z,14.67
2023-05-10T09:37:58.648Z,14.71
2023-05-10T09:40:28.155Z,14.78
2023-05-10T09:42:59.291Z,14.68
2023-05-10T09:45:28.927Z,15.06
2023-05-10T09:47:57.092Z,15.32
2023-05-10T09:50:25.078Z,15.37
2023-05-10T09:52:54.716Z,15.74
2023-05-10T09:55:24.419Z,16.07
2023-05-10T09:58:02.152Z,16.16
2023-05-10T10:00:29.742Z,16.07
2023-05-10T10:03:00.847Z,16.53
2023-05-10T10:05:34.966Z,16.15
2023-05-10T10:08:04.567Z,16.39
2023-05-10T10:10:33.962Z,16.02
2023-05-10T10:13:01.525Z,15.87
2023-05-10T10:15:28.828Z,15.04
2023-05-10T10:17:55.997Z,14.05
2023-05-10T10:20:25.105Z,13.52
2023-05-10T10:22:52.415Z,12.95
2023-05-10T10:25:22.890Z,12.84
2023-05-10T10:27:53.011Z,12.65
2023-05-10T10:30:42.810Z,12.45
2023-05-10T10:33:35.137Z,12.29
2023-05-10T10:36:04.390Z,12.72
2023-05-10T10:38:49.921Z,13.38
2023-05-10T10:41:36.943Z,13.30
2023-05-10T10:44:25.722Z,13.45
2023-05-10T10:47:24.525Z,13.69
2023-05-10T10:49:59.454Z,13.88
2023-05-10T10:52:36.600Z,14.04
2023-05-10T10:55:14.312Z,15.11
2023-05-10T10:57:41.639Z,14.08
2023-05-10T11:00:21.444Z,14.41
2023-05-10T11:02:52.595Z,14.29
2023-05-10T11:05:34.603Z,14.23
2023-05-10T11:08:08.651Z,14.01
2023-05-10T11:10:35.674Z,14.46
2023-05-10T11:13:07.924Z,13.87
2023-05-10T11:15:36.921Z,13.44
2023-05-10T11:18:21.820Z,12.51
2023-05-10T11:21:03.759Z,12.59
2023-05-10T11:23:41.088Z,12.95
2023-05-10T11:26:12.322Z,12.99
2023-05-10T11:28:46.772Z,13.85
2023-05-10T11:31:19.016Z,14.52
2023-05-10T11:33:48.021Z,15.06
2023-05-10T11:36:24.634Z,16.34
2023-05-10T11:38:51.824Z,16.28
2023-05-10T11:41:22.921Z,16.37
2023-05-10T11:43:57.306Z,17.12
2023-05-10T11:46:28.414Z,16.96
2023-05-10T11:49:02.651Z,17.23
2023-05-10T11:51:29.952Z,17.59
2023-05-10T11:53:58.245Z,17.37
2023-05-10T11:56:27.408Z,17.56
2023-05-10T11:58:59.167Z,17.49
2023-05-10T12:01:28.473Z,17.37
2023-05-10T12:03:59.806Z,17.85
2023-05-10T12:06:32.840Z,17.71
2023-05-10T12:09:00.731Z,17.57
2023-05-10T12:11:29.408Z,16.96
2023-05-10T12:13:57.773Z,16.50
2023-05-10T12:16:29.298Z,16.29
2023-05-10T12:19:01.881Z,16.40
2023-05-10T12:21:31.788Z,16.00
2023-05-10T12:24:08.331Z,15.96
2023-05-10T12:26:36.411Z,16.13
2023-05-10T12:29:17.745Z,16.81
2023-05-10T12:31:53.125Z,17.29
2023-05-10T12:34:28.176Z,16.88
2023-05-10T12:36:56.016Z,17.25
2023-05-10T12:39:23.288Z,17.30
2023-05-10T12:41:50.491Z,17.71
2023-05-10T12:44:18.144Z,17.87
2023-05-10T12:46:45.181Z,17.97
2023-05-10T12:49:12.353Z,18.42
2023-05-10T12:51:39.348Z,17.78
2023-05-10T12:54:06.457Z,18.07
2023-05-10T12:56:33.577Z,18.02
2023-05-10T12:59:00.836Z,17.82
2023-05-10T13:01:27.939Z,18.10
2023-05-10T13:03:55.049Z,18.20
2023-05-10T13:06:22.123Z,17.87
2023-05-10T13:08:49.163Z,18.10
2023-05-10T13:11:18.078Z,18.29
2023-05-10T13:13:46.787Z,18.04
2023-05-10T13:16:13.887Z,17.95
2023-05-10T13:18:41.057Z,18.26
2023-05-10T13:21:08.671Z,18.03
2023-05-10T13:23:35.990Z,18.02
2023-05-10T13:26:02.994Z,18.09
2023-05-10T13:28:30.671Z,17.80
2023-05-10T13:30:57.865Z,17.73
2023-05-10T13:33:25.137Z,18.04
2023-05-10T13:35:54.373Z,17.65
2023-05-10T13:38:22.848Z,18.01
2023-05-10T13:40:53.661Z,18.49
2023-05-10T13:43:21.229Z,18.69
2023-05-10T13:45:48.491Z,18.80
2023-05-10T13:48:15.607Z,18.99
2023-05-10T13:50:42.580Z,19.53
2023-05-10T13:53:09.669Z,19.63
2023-05-10T13:55:36.965Z,19.74
2023-05-10T13:58:03.961Z,20.38
2023-05-10T14:00:31.221Z,20.74
2023-05-10T14:02:58.350Z,20.86
2023-05-10T14:05:26.489Z,20.50
2023-05-10T14:07:54.942Z,20.58
2023-05-10T14:10:22.066Z,20.63
2023-05-10T14:12:49.160Z,20.63
2023-05-10T14:15:16.722Z,20.90
2023-05-10T14:17:44.106Z,21.11
2023-05-10T14:20:11.931Z,21.30
2023-05-10T14:22:38.914Z,21.49
2023-05-10T14:25:06.183Z,21.43
2023-05-10T14:27:33.509Z,21.64
2023-05-10T14:30:00.596Z,21.44
2023-05-10T14:32:28.563Z,21.41
2023-05-10T14:34:55.760Z,21.71
2023-05-10T14:37:22.866Z,22.00
2023-05-10T14:39:49.972Z,22.47
2023-05-10T14:42:16.942Z,22.70
2023-05-10T14:44:44.040Z,23.06
2023-05-10T14:47:12.204Z,23.47
2023-05-10T14:49:39.654Z,22.99
2023-05-10T14:52:06.662Z,23.26
2023-05-10T14:54:34.641Z,23.09
2023-05-10T14:57:01.810Z,23.27
2023-05-10T14:59:28.906Z,23.48
2023-05-10T15:01:56.702Z,23.44
2023-05-10T15:04:25.103Z,23.58
2023-05-10T15:07:00.187Z,23.33
2023-05-10T15:09:28.805Z,23.70
2023-05-10T15:11:56.696Z,23.87
2023-05-10T15:14:24.213Z,23.62
2023-05-10T15:16:51.312Z,24.24
2023-05-10T15:19:18.435Z,23.99
2023-05-10T15:21:45.703Z,24.18
2023-05-10T15:24:12.866Z,24.21
2023-05-10T15:26:39.973Z,24.37
2023-05-10T15:29:07.404Z,24.55
2023-05-10T15:31:37.463Z,24.62
2023-05-10T15:34:04.643Z,24.52
2023-05-10T15:36:33.204Z,24.71
2023-05-10T15:39:00.336Z,24.36
2023-05-10T15:41:27.411Z,24.45
2023-05-10T15:43:55.239Z,25.05
2023-05-10T15:46:22.765Z,25.05
2023-05-10T15:48:49.939Z,25.29
2023-05-10T15:51:18.727Z,25.42
2023-05-10T15:54:00.472Z,24.97
2023-05-10T15:56:32.745Z,25.56
2023-05-10T15:58:59.896Z,25.59
2023-05-10T16:01:27.066Z,25.15
2023-05-10T16:03:54.197Z,25.44
2023-05-10T16:06:21.602Z,26.03
2023-05-10T16:08:48.802Z,25.57
2023-05-10T16:11:16.040Z,25.60
2023-05-10T16:13:43.083Z,25.24
2023-05-10T16:16:10.189Z,25.81
2023-05-10T16:18:37.477Z,25.65
2023-05-10T16:21:04.919Z,26.50
2023-05-10T16:23:32.281Z,26.19
2023-05-10T16:25:59.584Z,26.92
2023-05-10T16:28:26.684Z,26.04
2023-05-10T16:30:53.859Z,27.02
2023-05-10T16:33:21.266Z,27.22
2023-05-10T16:35:48.388Z,27.03
2023-05-10T16:38:15.587Z,27.16
2023-05-10T16:40:42.636Z,27.26
2023-05-10T16:43:09.632Z,27.93
2023-05-10T16:45:36.714Z,28.86
2023-05-10T16:48:04.074Z,30.60
2023-05-10T16:50:31.428Z,31.06
2023-05-10T16:52:58.858Z,31.62
2023-05-10T16:55:26.553Z,33.59
2023-05-10T16:57:59.749Z,33.77
2023-05-10T17:00:27.555Z,31.48
2023-05-10T17:02:55.128Z,33.31
2023-05-10T17:05:23.045Z,34.54
2023-05-10T17:07:50.689Z,32.32
2023-05-10T17:10:18.141Z,33.26
2023-05-10T17:12:45.790Z,33.65
2023-05-10T17:15:13.214Z,34.85
2023-05-10T17:17:40.573Z,33.39
2023-05-10T17:20:08.488Z,32.31
2023-05-10T17:22:36.094Z,31.35
2023-05-10T17:25:04.354Z,30.74
2023-05-10T17:27:32.247Z,29.82
2023-05-10T17:29:59.622Z,30.11
2023-05-10T17:32:27.213Z,33.12
2023-05-10T17:34:54.453Z,29.88
2023-05-10T17:37:21.636Z,28.72
2023-05-10T17:39:48.711Z,29.02
2023-05-10T17:42:18.465Z,28.39
2023-05-10T17:44:45.585Z,27.99
2023-05-10T17:47:12.660Z,27.90
2023-05-10T17:49:40.091Z,27.65
2023-05-10T17:52:07.535Z,29.04
2023-05-10T17:54:34.916Z,27.56
2023-05-10T17:57:02.188Z,33.13
2023-05-10T17:59:29.530Z,32.46
2023-05-10T18:01:56.646Z,29.68
2023-05-10T18:04:23.821Z,29.49
2023-05-10T18:06:50.817Z,29.74
2023-05-10T18:09:18.297Z,29.19
2023-05-10T18:11:45.430Z,28.55
2023-05-10T18:14:12.753Z,29.27
2023-05-10T18:16:39.809Z,28.45
2023-05-10T18:19:06.971Z,28.71
2023-05-10T18:21:34.389Z,29.97
2023-05-10T18:24:01.894Z,28.99
2023-05-10T18:26:29.381Z,28.70
2023-05-10T18:28:57.326Z,29.37
2023-05-10T18:31:25.719Z,29.33
2023-05-10T18:33:52.879Z,28.83
2023-05-10T18:36:20.080Z,29.50
2023-05-10T18:38:47.109Z,29.99
2023-05-10T18:41:14.730Z,30.26
2023-05-10T18:43:43.095Z,29.89
2023-05-10T18:46:10.242Z,29.88
2023-05-10T18:48:37.587Z,29.66
2023-05-10T18:51:05.122Z,29.49
2023-05-10T18:53:32.729Z,30.70
2023-05-10T18:56:00.331Z,29.55
2023-05-10T18:58:28.550Z,29.74
2023-05-10T19:00:56.053Z,30.04
2023-05-10T19:03:23.146Z,29.78
2023-05-10T19:05:50.454Z,30.34
2023-05-10T19:08:18.166Z,30.43
2023-05-10T19:10:46.028Z,30.74
2023-05-10T19:13:15.065Z,30.13
2023-05-10T19:15:42.308Z,30.20
2023-05-10T19:18:09.729Z,29.78
2023-05-10T19:20:38.168Z,29.99
2023-05-10T19:23:10.061Z,29.98
2023-05-10T19:25:39.414Z,29.99
2023-05-10T19:28:06.562Z,31.19
2023-05-10T19:30:33.567Z,30.09
2023-05-10T19:33:04.500Z,30.30
2023-05-10T19:35:31.486Z,30.20
2023-05-10T19:37:58.670Z,30.36
2023-05-10T19:40:25.762Z,30.83
2023-05-10T19:42:54.637Z,30.04
2023-05-10T19:45:21.630Z,30.65
2023-05-10T19:47:49.013Z,30.42
2023-05-10T19:50:19.238Z,30.47
2023-05-10T19:52:46.784Z,30.56
2023-05-10T19:55:15.917Z,31.89
2023-05-10T19:57:43.141Z,30.94
2023-05-10T20:00:10.801Z,31.55
2023-05-10T20:02:40.964Z,30.62
2023-05-10T20:05:08.458Z,30.74
2023-05-10T20:07:37.240Z,31.05
2023-05-10T20:10:04.436Z,31.31
2023-05-10T20:12:31.676Z,30.96
2023-05-10T20:14:58.863Z,31.31
2023-05-10T20:17:26.039Z,30.74
2023-05-10T20:19:53.156Z,31.07
2023-05-10T20:22:20.168Z,31.43
2023-05-10T20:24:47.694Z,31.48
2023-05-10T20:27:14.945Z,30.97
2023-05-10T20:29:42.009Z,31.27
2023-05-10T20:32:09.026Z,32.62
2023-05-10T20:34:36.070Z,33.84
2023-05-10T20:37:03.153Z,33.10
2023-05-10T20:39:30.242Z,33.40
2023-05-10T20:41:57.286Z,33.68
2023-05-10T20:44:24.357Z,36.07
2023-05-10T20:46:51.439Z,33.92
2023-05-10T20:49:19.793Z,33.55
2023-05-10T20:51:46.929Z,32.94
2023-05-10T20:54:14.879Z,33.11
2023-05-10T20:56:41.894Z,32.65
2023-05-10T20:59:09.073Z,32.58
2023-05-10T21:01:36.143Z,34.43
2023-05-10T21:04:03.901Z,34.03
2023-05-10T21:06:32.096Z,34.67
2023-05-10T21:08:59.286Z,34.67
2023-05-10T21:11:26.398Z,35.91
2023-05-10T21:13:53.424Z,34.90
2023-05-10T21:16:20.745Z,34.70
2023-05-10T21:18:47.885Z,34.54
2023-05-10T21:21:14.856Z,34.14
2023-05-10T21:23:41.867Z,33.27
2023-05-10T21:26:08.886Z,33.74
2023-05-10T21:28:36.944Z,33.14
2023-05-10T21:31:05.378Z,34.56
2023-05-10T21:33:32.353Z,33.03
2023-05-10T21:35:59.438Z,31.85
2023-05-10T21:38:28.242Z,31.88
2023-05-10T21:40:55.591Z,31.43
2023-05-10T21:43:22.651Z,32.08
2023-05-10T21:45:50.463Z,33.28
2023-05-10T21:48:17.531Z,32.66
2023-05-10T21:50:44.611Z,32.48
2023-05-10T21:53:11.923Z,33.16
2023-05-10T21:55:39.164Z,32.07
2023-05-10T21:58:06.343Z,33.65
2023-05-10T22:00:34.276Z,32.32
2023-05-10T22:03:02.024Z,35.24
2023-05-10T22:05:29.377Z,33.89
2023-05-10T22:07:56.492Z,36.51
2023-05-10T22:10:23.493Z,38.97
2023-05-10T22:12:50.775Z,39.60
2023-05-10T22:15:17.859Z,38.86
2023-05-10T22:17:45.003Z,34.47
2023-05-10T22:20:12.186Z,34.68
2023-05-10T22:22:39.307Z,37.27
2023-05-10T22:25:07.744Z,35.57
2023-05-10T22:27:35.238Z,35.27
2023-05-10T22:30:03.191Z,34.93
2023-05-10T22:32:35.717Z,36.65
2023-05-10T22:35:03.441Z,36.42
2023-05-10T22:37:32.624Z,37.38
2023-05-10T22:39:59.710Z,33.85
2023-05-10T22:42:26.851Z,34.84
2023-05-10T22:44:53.966Z,34.77
2023-05-10T22:47:21.044Z,34.41
2023-05-10T22:49:48.587Z,34.12
2023-05-10T22:52:15.698Z,34.38
2023-05-10T22:54:44.401Z,34.56
2023-05-10T22:57:11.647Z,34.75
2023-05-10T22:59:38.717Z,33.70
2023-05-10T23:02:06.177Z,33.74
2023-05-10T23:04:33.341Z,33.45
2023-05-10T23:07:00.445Z,33.56
2023-05-10T23:09:27.420Z,33.48
2023-05-10T23:11:54.439Z,34.62
2023-05-10T23:14:21.500Z,37.44
2023-05-10T23:16:48.597Z,38.80
2023-05-10T23:19:15.804Z,36.56
2023-05-10T23:21:43.079Z,37.70
2023-05-10T23:24:10.056Z,38.00
2023-05-10T23:26:37.086Z,38.17
2023-05-10T23:29:04.096Z,37.32
2023-05-10T23:31:31.455Z,37.19
2023-05-10T23:33:58.604Z,37.95
2023-05-10T23:36:25.952Z,37.42
2023-05-10T23:38:53.022Z,37.51
2023-05-10T23:41:20.155Z,38.09
2023-05-10T23:43:47.250Z,37.43
2023-05-10T23:46:14.309Z,37.40
2023-05-10T23:48:41.559Z,37.39
2023-05-10T23:51:08.658Z,37.59
2023-05-10T23:53:35.670Z,37.70
2023-05-10T23:56:02.759Z,37.87
2023-05-10T23:58:29.786Z,38.33
